• vieta
  • image
  • image
  • image

Šiandien

Penktadienis, 24 Spalis 2014

Orų prognozė

Šiauliai 0 °C
   

Orų prognozė aviacijai

[source: ADDS]
METAR
EYSA 241050Z 13012KT CAVOK 00/M10 Q1033 =
TAF
TAF EYSA 241100Z 2412/2421 14012KT CAVOK =
SR / SS: 05:16 / 15:08 UTC (EYSA 2014-10-24)

Lankytojai

Mes turime 3 svečius online

tic logo lt